Airfield :
LOGIN :

Register | Disclaimer

   EN    FR    IT 

 










Legend :    VFR   Marginal VFR   IFR   Intensive IFR   Very Intensive IFR
Visi :
Ceiling :
>= 8 km
>= 3000ft
5 to 8 km
1000 to 3000 ft
1500m to 5 km
500 to 1000 ft
800 to 1500m
200 to 500 ft
< 800m
< 200 ft
Symbols :   Thunderstorms  Fog  Heavy snow  Heavy precipitations  Wind > 20 kt
SIGMETs :     Misc.  Thunderstorms  Icing  Turbulence  Mountain Waves  Volcanic Ashes







- Airport Elevation : 277 ft
- IATA code : JER
- Download approach charts


EGJJ - Jersey

CURRENT METAR :
  • 200850Z 28021G34KT 7000 -DZ SCT004 BKN005 11/11 Q1000

EXPIRED METARs :
  • 200820Z 27025G35KT 9000 FEW002 BKN005 11/11 Q0999
  • 200750Z 27024KT 8000 -DZ FEW001 BKN003 11/11 Q0999 RERA REDZ
  • 200650Z 27024G36KT 2500 RADZ FEW000 SCT002 BKN003 11/11 Q0999
  • 200620Z 26022KT 0800 R26///// RA FEW000 OVC002 11/11 Q0999

TAF TAF EGJJ
Valid from the 20 at 09:00 until the 20 at 18:00 UTC


200805Z 2009/2018 28028G40KT 9999 SCT005 BKN010
TEMPO 2009/2011 4000 RADZ BKN005
PROB30
TEMPO 2015/2018 SCT015
ATIS : +44 1534 498 073
No reported NOTAMs for that airfield.
1 SIGMET reported for the Brest FIR (LFRR) :
 
Severe turbulence
LFRR SIGMET 2 VALID 200800/201200 LFPW
LFRR BREST FIR/UIR SEV TURB FCST WI N4715 W00015 - N4630 W00015 - N4630 W00130 - N4330 W00145 - N4500 W00800 - N4900 W00800 - N5000 W00215 - N4830 W00030 - N4815 W00315 - N4715 W00015 SFC/FL060 MOV E 15KT NC=



MET'MAP, your aeronautical weather chart ! - Copyright ORBIFLY December 2007 - Disclaimer

ORBIFLY MET'MAP TEAM :

Programming & Development : Alexandra Zaïnal
Concept & Development : Baudouin d'Aumeries
Co-Development & Prog : Marc-Olivier Méhu
Technical & hardware support : Manuel Goepfert

Contact : metmap@orbifly.com




SOURCES & CREDITS :

   NOAA